Latest Weather Observations for Applethorpe

IDN60801

Issued at 9:35 pm EDT Friday 31 October 2014 (issued every 30 minutes, with the page automatically refreshed every 10 minutes)

About weather observations | Map of weather stations | Latest weather observations for NSW | Other Formats
Station Details ID: 041175 Name: APPLETHORPE Lat: -28.62 Lon: 151.95 Height: 871.6 m
Data from the previous 72 hours. | See also: Recent months at Applethorpe
Date/Time
EDT
Temp
°C
App
Temp
°C
Dew
Point
Rel
Hum
%
Delta-T
°C
Wind Press
QNH
hPa
Press
MSL
hPa
Rain
since 9 am
mm
Dir
 
Spd
km/h
Gust
km/h
Spd
kts
Gust
kts
31/09:30pm 19.8 20.6 13.6 67 3.7 ENE 2 4 1 2 1017.7 1015.0 0.0
31/09:00pm 20.3 20.9 13.0 63 4.3 ENE 2 4 1 2 1017.7 1015.0 0.0
31/08:30pm 20.7 20.7 12.5 59 4.8 WNW 4 6 2 3 1017.7 1015.0 0.0
31/08:00pm 20.5 20.0 12.1 58 4.9 NNE 6 9 3 5 1017.0 1014.3 0.0
31/07:30pm 20.6 20.2 12.4 59 4.8 E 6 13 3 7 1016.6 1013.9 0.0
31/07:00pm 21.3 19.8 11.9 55 5.5 E 11 24 6 13 1016.0 1013.2 0.0
31/06:30pm 26.0 24.6 11.0 39 8.8 NNE 9 13 5 7 1015.4 1012.7 0.0
31/06:00pm 26.4 23.9 9.7 35 9.6 N 13 22 7 12 1014.6 1011.9 0.0
31/05:30pm 27.5 23.9 10.4 34 10.0 N 20 32 11 17 1014.8 1012.0 0.0
31/05:00pm 28.6 26.9 9.9 31 10.9 N 9 17 5 9 1014.5 1011.8 0.0
31/04:30pm 28.2 26.9 10.0 32 10.6 N 7 13 4 7 1014.5 1011.8 0.0
31/04:00pm 29.5 27.4 9.8 29 11.5 N 11 17 6 9 1015.1 1012.3 0.0
31/03:30pm 28.5 25.7 10.0 31 10.8 N 15 20 8 11 1015.3 1012.6 0.0
31/03:00pm 29.5 27.1 10.1 30 11.4 N 13 20 7 11 1015.6 1012.9 0.0
31/02:30pm 29.8 28.2 10.3 29 11.5 NW 9 19 5 10 1016.2 1013.5 0.0
31/02:00pm 27.6 24.9 9.1 31 10.6 N 13 22 7 12 1016.8 1014.1 0.0
31/01:30pm 29.4 28.1 9.9 29 11.4 NNW 7 15 4 8 1017.3 1014.6 0.0
31/01:00pm 29.4 28.1 9.1 28 11.7 W 6 19 3 10 1017.8 1015.1 0.0
31/12:30pm 27.6 25.2 6.9 27 11.4 N 9 20 5 11 1018.2 1015.6 0.0
31/12:00pm 26.5 24.2 10.3 36 9.4 N 13 20 7 11 1018.8 1016.1 0.0
31/11:30am 27.6 25.0 9.5 32 10.4 N 13 20 7 11 1019.1 1016.4 0.0
31/11:00am 27.1 26.4 12.1 39 9.0 W 7 19 4 10 1019.4 1016.8 0.0
31/10:30am 25.9 25.2 12.1 42 8.2 NNW 7 13 4 7 1019.8 1017.1 0.0
31/10:00am 25.2 24.8 13.1 47 7.3 N 7 13 4 7 1019.9 1017.2 0.0
31/09:30am 23.5 22.5 13.4 53 6.1 N 11 15 6 8 1020.0 1017.3 0.0
31/09:00am 22.5 21.8 13.3 56 5.5 N 9 19 5 10 1020.1 1017.4 0.0
31/08:30am 22.0 21.9 13.3 57 5.2 NNW 6 17 3 9 1020.0 1017.3 0.0
31/08:00am 20.4 20.7 14.6 69 3.5 NW 6 13 3 7 1019.9 1017.2 0.0
31/07:30am 16.5 18.0 14.7 89 1.1 CALM 0 4 0 2 1019.4 1016.8 0.0
31/07:00am 13.2 14.0 12.5 95 0.4 CALM 0 2 0 1 1019.0 1016.3 0.0
31/06:30am 11.6 11.6 11.1 97 0.3 NE 2 4 1 2 1018.9 1016.2 0.0
31/06:00am 10.9 11.1 10.5 97 0.2 CALM 0 0 0 0 1018.6 1015.9 0.0
31/05:30am 11.4 11.7 10.8 96 0.3 CALM 0 0 0 0 1018.3 1015.7 0.0
31/05:00am 11.9 12.4 11.5 97 0.2 CALM 0 0 0 0 1018.1 1015.4 0.0
31/04:30am 11.8 12.2 11.3 97 0.3 CALM 0 0 0 0 1017.8 1015.1 0.0
31/04:00am 12.0 12.5 11.5 97 0.3 CALM 0 0 0 0 1017.8 1015.1 0.0
31/03:30am 12.2 12.3 11.5 95 0.4 ENE 2 4 1 2 1017.9 1015.2 0.0
31/03:00am 12.3 12.8 11.6 95 0.4 CALM 0 0 0 0 1018.0 1015.3 0.0
31/02:30am 13.0 13.7 12.1 94 0.5 CALM 0 2 0 1 1018.2 1015.6 0.0
31/02:00am 13.3 14.1 12.4 94 0.5 CALM 0 0 0 0 1018.5 1015.8 0.0
31/01:30am 13.3 14.0 12.2 93 0.6 CALM 0 0 0 0 1018.3 1015.7 0.0
31/01:00am 13.9 14.4 12.9 94 0.6 ENE 2 4 1 2 1018.8 1016.1 0.0
31/12:30am 14.0 14.9 12.8 92 0.7 CALM 0 0 0 0 1019.1 1016.4 0.0
31/12:00am 14.5 15.0 12.8 89 1.0 NE 2 4 1 2 1019.3 1016.7 0.0
 
Date/Time
EDT
Temp
°C
App
Temp
°C
Dew
Point
Rel
Hum
%
Delta-T
°C
Wind Press
QNH
hPa
Press
MSL
hPa
Rain
since 9 am
mm
Dir
 
Spd
km/h
Gust
km/h
Spd
kts
Gust
kts
30/11:30pm 14.9 15.8 12.8 87 1.2 CALM 0 0 0 0 1019.1 1016.4 0.0
30/11:00pm 15.2 16.0 12.6 84 1.5 CALM 0 2 0 1 1018.9 1016.2 0.0
30/10:30pm 16.4 16.6 13.1 81 1.9 NNE 4 6 2 3 1018.7 1016.0 0.0
30/10:00pm 16.4 16.9 12.9 80 2.0 NW 2 6 1 3 1018.6 1015.9 0.0
30/09:30pm 18.7 18.8 12.7 68 3.5 ENE 4 7 2 4 1018.1 1015.4 0.0
30/09:00pm 19.6 19.1 10.8 56 5.0 NE 4 9 2 5 1017.9 1015.2 0.0
30/08:30pm 20.5 19.5 8.9 47 6.4 E 4 6 2 3 1017.6 1014.9 0.0
30/08:00pm 20.6 19.1 6.8 40 7.3 ENE 4 6 2 3 1017.0 1014.3 0.0
30/07:30pm 22.8 20.8 4.6 30 9.4 W 4 7 2 4 1016.6 1013.9 0.0
30/07:00pm 25.6 23.1 3.7 24 11.3 W 6 7 3 4 1016.4 1013.7 0.0
30/06:30pm 26.8 24.1 2.8 21 12.3 W 6 11 3 6 1016.1 1013.3 0.0
30/06:00pm 28.0 25.1 1.4 18 13.4 WSW 6 13 3 7 1016.0 1013.2 0.0
30/05:30pm 28.5 25.0 1.0 17 13.8 W 9 15 5 8 1016.0 1013.2 0.0
30/05:00pm 28.6 25.2 1.9 18 13.6 WSW 9 13 5 7 1015.8 1013.1 0.0
30/04:30pm 28.4 24.5 -1.7 14 14.4 W 9 15 5 8 1016.0 1013.2 0.0
30/04:00pm 28.4 24.4 0.4 16 13.9 SW 11 24 6 13 1016.1 1013.3 0.0
30/03:30pm 28.8 25.1 0.1 15 14.2 W 9 24 5 13 1016.2 1013.5 0.0
30/03:00pm 29.0 25.3 2.4 18 13.7 SW 11 24 6 13 1016.4 1013.7 0.0
30/02:30pm 28.6 25.4 3.3 19 13.2 WSW 9 19 5 10 1016.7 1014.0 0.0
30/02:00pm 28.0 24.7 2.4 19 13.1 W 9 17 5 9 1017.3 1014.6 0.0
30/01:30pm 27.1 24.5 4.0 22 12.1 NNW 7 15 4 8 1017.7 1015.0 0.0
30/01:00pm 26.1 23.6 4.6 25 11.3 N 7 20 4 11 1018.2 1015.6 0.0
30/12:30pm 25.9 23.0 4.8 25 11.1 WNW 9 17 5 9 1018.8 1016.1 0.0
30/12:00pm 26.3 24.1 6.1 27 10.9 N 7 17 4 9 1019.3 1016.7 0.0
30/11:30am 25.1 22.9 6.3 30 10.1 N 7 15 4 8 1019.8 1017.1 0.0
30/11:00am 24.0 22.0 6.2 31 9.5 N 6 11 3 6 1020.1 1017.4 0.0
30/10:30am 23.8 21.9 7.5 35 8.9 NNE 7 13 4 7 1020.4 1017.8 0.0
30/10:00am 23.1 21.2 7.7 37 8.4 NNE 7 15 4 8 1020.5 1017.9 0.0
30/09:30am 20.9 18.8 8.4 44 6.8 N 9 17 5 9 1020.6 1018.0 0.0
30/09:00am 19.6 18.1 8.3 48 6.1 NNE 6 13 3 7 1020.6 1018.0 0.0
30/08:30am 18.3 17.5 9.6 57 4.8 ENE 4 7 2 4 1020.7 1018.1 0.0
30/08:00am 16.3 15.6 11.3 72 2.8 ENE 6 9 3 5 1020.4 1017.8 0.0
30/07:30am 13.7 13.2 11.9 89 1.0 NE 6 9 3 5 1020.4 1017.8 0.0
30/07:00am 12.8 12.3 12.1 95 0.4 ENE 6 11 3 6 1020.0 1017.3 0.0
30/06:30am 12.5 12.0 12.1 97 0.2 ENE 6 9 3 5 1019.7 1017.0 0.0
30/06:00am 11.2 11.0 10.6 96 0.3 ENE 2 4 1 2 1019.3 1016.7 0.0
30/05:30am 11.7 11.3 11.0 95 0.4 NE 4 6 2 3 1019.1 1016.4 0.0
30/05:00am 12.2 12.2 11.3 94 0.5 ENE 2 6 1 3 1018.7 1016.0 0.0
30/04:30am 13.0 12.8 11.7 92 0.7 ENE 4 7 2 4 1018.7 1016.0 0.0
30/04:00am 14.0 13.9 12.2 89 1.0 E 4 7 2 4 1018.9 1016.2 0.0
30/03:30am 14.7 14.8 12.6 87 1.2 ENE 4 7 2 4 1019.1 1016.4 0.0
30/03:00am 14.6 14.2 12.5 87 1.2 ENE 6 15 3 8 1019.1 1016.4 0.0
30/02:30am 14.6 14.1 12.5 87 1.2 E 7 15 4 8 1019.1 1016.4 0.0
30/02:00am 14.6 14.0 12.3 86 1.3 E 7 17 4 9 1019.2 1016.6 0.0
30/01:30am 14.7 14.1 12.2 85 1.4 E 7 13 4 7 1019.5 1016.9 0.0
30/01:00am 14.6 13.9 12.1 85 1.4 E 7 17 4 9 1019.8 1017.1 0.0
30/12:30am 14.7 14.1 12.2 85 1.4 ENE 7 17 4 9 1020.1 1017.4 0.0
30/12:00am 14.2 13.7 12.1 87 1.2 E 6 11 3 6 1020.2 1017.5 0.0
 
Date/Time
EDT
Temp
°C
App
Temp
°C
Dew
Point
Rel
Hum
%
Delta-T
°C
Wind Press
QNH
hPa
Press
MSL
hPa
Rain
since 9 am
mm
Dir
 
Spd
km/h
Gust
km/h
Spd
kts
Gust
kts
29/11:30pm 13.4 12.7 11.4 88 1.1 E 6 13 3 7 1020.2 1017.5 0.0
29/11:00pm 13.7 12.9 11.2 85 1.4 E 6 9 3 5 1020.2 1017.5 0.0
29/10:30pm 14.2 13.4 11.1 81 1.7 E 6 11 3 6 1020.1 1017.4 0.0
29/10:00pm 14.8 13.9 11.2 79 2.0 E 7 15 4 8 1020.1 1017.4 0.0
29/09:30pm 15.4 14.5 11.3 76 2.3 ENE 7 17 4 9 1020.2 1017.5 0.0
29/09:00pm 16.1 14.8 11.1 72 2.8 ENE 9 20 5 11 1019.8 1017.1 0.0
29/08:30pm 17.2 16.1 10.8 66 3.6 E 7 15 4 8 1019.1 1016.4 0.0
29/08:00pm 18.4 17.0 9.7 57 4.8 E 7 19 4 10 1018.6 1015.9 0.0
29/07:30pm 19.7 18.3 9.4 51 5.7 E 7 17 4 9 1018.0 1015.3 0.0
29/07:00pm 21.3 20.0 9.9 48 6.4 E 7 15 4 8 1017.6 1014.9 0.0
29/06:30pm 23.3 22.1 10.4 44 7.4 ENE 7 15 4 8 1017.0 1014.3 0.0
29/06:00pm 24.9 23.6 9.9 38 8.6 E 7 15 4 8 1016.7 1014.0 0.0
29/05:30pm 25.5 23.6 9.1 35 9.3 ENE 9 17 5 9 1016.4 1013.7 0.0
29/05:00pm 26.6 24.2 8.5 32 10.2 ENE 11 20 6 11 1016.3 1013.6 0.0
29/04:30pm 26.9 24.4 8.2 30 10.5 E 11 24 6 13 1016.1 1013.3 0.0
29/04:00pm 28.3 26.3 8.6 29 11.2 E 9 20 5 11 1016.2 1013.5 0.0
29/03:30pm 28.5 26.5 8.7 29 11.3 E 9 22 5 12 1016.3 1013.6 0.0
29/03:00pm 28.7 26.4 7.4 26 11.9 E 9 19 5 10 1016.6 1013.9 0.0
29/02:30pm 28.5 26.1 6.8 25 12.0 NE 9 17 5 9 1016.9 1014.2 0.0
29/02:00pm 28.7 26.2 3.8 20 13.1 NNE 6 9 3 5 1017.0 1014.3 0.0
29/01:30pm 27.8 25.2 3.0 20 12.8 E 6 15 3 8 1017.4 1014.7 0.0
29/01:00pm 28.5 25.9 4.1 21 12.9 ENE 7 13 4 7 1017.7 1015.0 0.0
29/12:30pm 26.7 23.7 2.2 20 12.4 E 7 13 4 7 1017.9 1015.2 0.0
29/12:00pm 25.5 22.5 0.8 20 12.1 ENE 6 15 3 8 1018.5 1015.8 0.0
29/11:30am 26.2 23.2 1.8 20 12.2 E 7 13 4 7 1018.8 1016.1 0.0
29/11:00am 24.8 22.0 1.8 22 11.4 ESE 6 13 3 7 1019.1 1016.4 0.0
29/10:30am 24.4 21.4 0.6 21 11.5 E 6 11 3 6 1019.2 1016.6 0.0
29/10:00am 23.7 20.4 -0.1 20 11.3 E 7 17 4 9 1019.0 1016.3 0.0
29/09:30am 23.2 19.3 -1.2 19 11.3 E 9 20 5 11 1019.0 1016.3 0.0
29/09:00am 23.8 20.5 -1.4 18 11.7 ENE 6 11 3 6 1018.6 1015.9 0.0
29/08:30am 21.0 18.7 0.3 25 9.7 E 2 6 1 3 1018.5 1015.8 0.0
29/08:00am 17.6 15.0 -1.8 26 8.5 NE 2 2 1 1 1018.2 1015.6 0.0
29/07:54am 16.5 14.3 -1.3 29 7.8 CALM 0 2 0 1 1018.2 1015.6 0.0
29/07:30am 11.5 10.1 3.8 59 3.6 CALM 0 4 0 2 1017.9 1015.2 0.0
29/07:00am 9.2 7.9 4.0 70 2.4 CALM 0 0 0 0 1017.6 1014.9 0.0
29/06:30am 7.2 5.8 3.6 78 1.6 CALM 0 0 0 0 1017.3 1014.6 0.0
29/06:00am 6.8 5.4 3.7 80 1.4 CALM 0 0 0 0 1016.8 1014.1 0.0
29/05:30am 7.2 5.9 4.1 81 1.4 CALM 0 0 0 0 1016.5 1013.8 0.0
29/05:00am 7.2 5.7 3.2 76 1.8 CALM 0 0 0 0 1016.3 1013.6 0.0
29/04:30am 7.9 6.5 3.7 75 1.9 CALM 0 0 0 0 1016.2 1013.5 0.0
29/04:00am 8.0 6.6 3.3 72 2.1 CALM 0 0 0 0 1016.2 1013.5 0.0
29/03:30am 8.4 7.0 3.3 70 2.3 CALM 0 0 0 0 1016.2 1013.5 0.0
29/03:00am 9.3 7.6 1.8 59 3.3 CALM 0 0 0 0 1016.2 1013.5 0.0
29/02:30am 9.4 7.7 1.6 58 3.4 CALM 0 4 0 2 1016.2 1013.5 0.0
29/02:00am 9.8 7.1 0.2 51 4.1 WNW 4 6 2 3 1016.4 1013.7 0.0
29/01:30am 9.9 8.2 2.0 58 3.5 CALM 0 0 0 0 1016.6 1013.9 0.0
29/01:00am 11.1 9.5 2.2 54 4.0 CALM 0 0 0 0 1016.7 1014.0 0.0
29/12:30am 11.6 10.1 2.9 55 4.0 CALM 0 0 0 0 1016.9 1014.2 0.0
29/12:00am 13.2 10.1 0.2 41 5.7 W 6 7 3 4 1017.0 1014.3 0.0
 
Date/Time
EDT
Temp
°C
App
Temp
°C
Dew
Point
Rel
Hum
%
Delta-T
°C
Wind Press
QNH
hPa
Press
MSL
hPa
Rain
since 9 am
mm
Dir
 
Spd
km/h
Gust
km/h
Spd
kts
Gust
kts
28/11:30pm 14.4 10.8 -3.8 28 7.4 W 6 9 3 5 1017.0 1014.3 0.0
28/11:00pm 14.0 11.7 -2.6 31 6.9 CALM 0 0 0 0 1016.9 1014.2 0.0

Other Formats:

Comma delimited format used in spreadsheet applications
http://www.bom.gov.au/fwo/IDN60801/IDN60801.94553.axf

JavaScript Object Notation format (JSON) in row-major order
http://www.bom.gov.au/fwo/IDN60801/IDN60801.94553.json